IRA3469 OIMM-OPKC
Flight info
| Callsign | IRA3469 |
|---|---|
| Flight time | N/A |
| Altitude | 33000 |
| Route | NOTSO G775 ASVIS/N0467F350 B441 BJD G775 ZDN/N0460F270 G208 PG G210 DOSTI |
| Aircraft | A320/M-SDE3FGHIRWY/LB1 |
Departure
| Time | 2026-05-09 09:47 |
|---|---|
| Airport | Mashhad International Airport (OIMM) |
Arrival
| Time | N/A |
|---|---|
| Airport | Jinnah International Airport (OPKC) |
| Time | Latitude | Longitude | Altitude | Speed | Heading |
|---|---|---|---|---|---|
| 2026-05-09 09:01 | 36.23135 | 59.63892 | 3254 ft | 0 kts | 268° |
| 2026-05-09 09:37 | 36.23147 | 59.63884 | 3253 ft | 6 kts | 334° |
| 2026-05-09 09:37 | 36.23195 | 59.63864 | 3254 ft | 5 kts | 343° |
| 2026-05-09 09:37 | 36.23236 | 59.63849 | 3253 ft | 7 kts | 343° |
| 2026-05-09 09:38 | 36.23277 | 59.63817 | 3253 ft | 8 kts | 313° |
| 2026-05-09 09:38 | 36.23312 | 59.63768 | 3253 ft | 7 kts | 311° |
| 2026-05-09 09:38 | 36.23343 | 59.63726 | 3252 ft | 6 kts | 315° |
| 2026-05-09 09:38 | 36.23368 | 59.63694 | 3253 ft | 5 kts | 315° |
| 2026-05-09 09:39 | 36.23400 | 59.63655 | 3253 ft | 8 kts | 314° |
| 2026-05-09 09:39 | 36.23442 | 59.63599 | 3253 ft | 10 kts | 313° |
| 2026-05-09 09:39 | 36.23495 | 59.63549 | 3253 ft | 10 kts | 2° |
| 2026-05-09 09:39 | 36.23558 | 59.63605 | 3249 ft | 13 kts | 43° |
| 2026-05-09 09:40 | 36.23636 | 59.63696 | 3244 ft | 16 kts | 44° |
| 2026-05-09 09:40 | 36.23692 | 59.63697 | 3245 ft | 8 kts | 320° |
| 2026-05-09 09:40 | 36.23731 | 59.63657 | 3245 ft | 7 kts | 318° |
| 2026-05-09 09:40 | 36.23768 | 59.63607 | 3244 ft | 9 kts | 312° |
| 2026-05-09 09:41 | 36.23815 | 59.63543 | 3242 ft | 12 kts | 313° |
| 2026-05-09 09:41 | 36.23872 | 59.63470 | 3240 ft | 9 kts | 314° |
| 2026-05-09 09:41 | 36.23908 | 59.63423 | 3241 ft | 7 kts | 314° |
| 2026-05-09 09:41 | 36.23944 | 59.63376 | 3239 ft | 8 kts | 314° |
| 2026-05-09 09:42 | 36.23991 | 59.63315 | 3236 ft | 11 kts | 314° |
| 2026-05-09 09:42 | 36.24053 | 59.63235 | 3235 ft | 14 kts | 314° |
| 2026-05-09 09:42 | 36.24098 | 59.63177 | 3236 ft | 8 kts | 314° |
| 2026-05-09 09:42 | 36.24137 | 59.63125 | 3235 ft | 9 kts | 311° |
| 2026-05-09 09:43 | 36.24185 | 59.63059 | 3234 ft | 12 kts | 313° |
| 2026-05-09 09:43 | 36.24246 | 59.62979 | 3232 ft | 13 kts | 313° |
| 2026-05-09 09:43 | 36.24307 | 59.62901 | 3233 ft | 12 kts | 316° |
| 2026-05-09 09:43 | 36.24365 | 59.62831 | 3238 ft | 12 kts | 316° |
| 2026-05-09 09:44 | 36.24424 | 59.62758 | 3235 ft | 12 kts | 315° |
| 2026-05-09 09:44 | 36.24458 | 59.62714 | 3241 ft | 6 kts | 313° |
| 2026-05-09 09:44 | 36.24481 | 59.62682 | 3239 ft | 8 kts | 311° |
| 2026-05-09 09:44 | 36.24541 | 59.62600 | 3243 ft | 14 kts | 313° |
| 2026-05-09 09:45 | 36.24610 | 59.62520 | 3243 ft | 13 kts | 332° |
| 2026-05-09 09:45 | 36.24691 | 59.62542 | 3241 ft | 13 kts | 47° |
| 2026-05-09 09:45 | 36.24743 | 59.62624 | 3243 ft | 9 kts | 58° |
| 2026-05-09 09:45 | 36.24735 | 59.62686 | 3238 ft | 8 kts | 132° |
| 2026-05-09 09:46 | 36.24727 | 59.62697 | 3235 ft | 0 kts | 134° |
| 2026-05-09 09:46 | 36.24582 | 59.62889 | 3230 ft | 69 kts | 133° |
| 2026-05-09 09:47 | 36.24089 | 59.63528 | 3242 ft | 134 kts | 134° |
| 2026-05-09 09:47 | 36.23321 | 59.64528 | 3258 ft | 184 kts | 134° |
| 2026-05-09 09:47 | 36.22372 | 59.65719 | 3709 ft | 197 kts | 133° |
| 2026-05-09 09:47 | 36.21393 | 59.66912 | 4525 ft | 199 kts | 134° |
| 2026-05-09 09:48 | 36.20388 | 59.68123 | 4902 ft | 215 kts | 133° |
| 2026-05-09 09:48 | 36.19287 | 59.69452 | 5311 ft | 226 kts | 134° |
| 2026-05-09 09:48 | 36.18147 | 59.70836 | 5902 ft | 233 kts | 134° |
| 2026-05-09 09:48 | 36.16838 | 59.72142 | 6273 ft | 255 kts | 154° |
| 2026-05-09 09:49 | 36.15038 | 59.72403 | 6820 ft | 274 kts | 189° |
| 2026-05-09 09:49 | 36.13328 | 59.71298 | 7472 ft | 288 kts | 222° |
| 2026-05-09 09:49 | 36.12326 | 59.69137 | 8230 ft | 298 kts | 256° |
| 2026-05-09 09:49 | 36.12388 | 59.66606 | 9082 ft | 301 kts | 287° |
| 2026-05-09 09:50 | 36.13508 | 59.64431 | 9922 ft | 306 kts | 316° |
| 2026-05-09 09:50 | 36.15405 | 59.63213 | 10608 ft | 316 kts | 346° |
| 2026-05-09 09:50 | 36.17601 | 59.63034 | 11262 ft | 321 kts | 355° |
| 2026-05-09 09:50 | 36.19795 | 59.62447 | 11407 ft | 334 kts | 329° |
| 2026-05-09 09:51 | 36.21595 | 59.60597 | 11544 ft | 345 kts | 302° |
| 2026-05-09 09:51 | 36.22531 | 59.57828 | 11706 ft | 358 kts | 275° |
| 2026-05-09 09:51 | 36.22348 | 59.54791 | 12032 ft | 363 kts | 250° |
| 2026-05-09 09:51 | 36.21038 | 59.52113 | 12616 ft | 363 kts | 225° |
| 2026-05-09 09:52 | 36.18933 | 59.50435 | 13201 ft | 367 kts | 201° |
| 2026-05-09 09:52 | 36.16395 | 59.50039 | 13835 ft | 376 kts | 177° |
| 2026-05-09 09:52 | 36.13908 | 59.51006 | 14363 ft | 388 kts | 154° |
| 2026-05-09 09:52 | 36.11816 | 59.53256 | 14918 ft | 402 kts | 136° |
| 2026-05-09 09:53 | 36.10010 | 59.55869 | 15534 ft | 405 kts | 135° |
| 2026-05-09 09:53 | 36.08191 | 59.58543 | 16105 ft | 408 kts | 135° |
| 2026-05-09 09:53 | 36.06123 | 59.60869 | 16611 ft | 398 kts | 155° |
| 2026-05-09 09:53 | 36.03588 | 59.62054 | 17186 ft | 384 kts | 176° |
| 2026-05-09 09:54 | 36.00962 | 59.62060 | 17742 ft | 377 kts | 190° |
| 2026-05-09 09:54 | 35.98351 | 59.61692 | 18307 ft | 378 kts | 191° |
| 2026-05-09 09:54 | 35.95739 | 59.61301 | 18788 ft | 379 kts | 191° |
| 2026-05-09 09:54 | 35.93114 | 59.60904 | 19236 ft | 380 kts | 191° |
| 2026-05-09 09:55 | 35.90493 | 59.60511 | 19657 ft | 382 kts | 191° |
| 2026-05-09 09:55 | 35.87837 | 59.60119 | 20080 ft | 384 kts | 191° |
| 2026-05-09 09:55 | 35.85225 | 59.59739 | 20485 ft | 386 kts | 191° |
| 2026-05-09 09:55 | 35.82589 | 59.59360 | 20899 ft | 387 kts | 191° |
| 2026-05-09 09:56 | 35.79912 | 59.58976 | 21310 ft | 388 kts | 191° |
| 2026-05-09 09:56 | 35.77230 | 59.58594 | 21674 ft | 390 kts | 191° |
| 2026-05-09 09:56 | 35.74512 | 59.58204 | 22058 ft | 392 kts | 191° |
| 2026-05-09 09:56 | 35.71803 | 59.57812 | 22435 ft | 394 kts | 191° |
| 2026-05-09 09:57 | 35.69071 | 59.57420 | 22759 ft | 397 kts | 191° |
| 2026-05-09 09:57 | 35.66328 | 59.57026 | 23099 ft | 398 kts | 190° |
| 2026-05-09 09:57 | 35.63555 | 59.56625 | 23450 ft | 400 kts | 190° |
| 2026-05-09 09:57 | 35.60784 | 59.56225 | 23765 ft | 402 kts | 190° |
| 2026-05-09 09:58 | 35.58002 | 59.55825 | 24047 ft | 404 kts | 190° |
| 2026-05-09 09:58 | 35.55241 | 59.55432 | 24299 ft | 406 kts | 191° |
| 2026-05-09 09:58 | 35.52437 | 59.55033 | 24556 ft | 407 kts | 191° |
| 2026-05-09 09:58 | 35.49624 | 59.54630 | 24819 ft | 409 kts | 191° |
| 2026-05-09 09:59 | 35.46796 | 59.54224 | 25044 ft | 411 kts | 191° |
| 2026-05-09 09:59 | 35.43935 | 59.53812 | 25214 ft | 415 kts | 191° |
| 2026-05-09 09:59 | 35.41095 | 59.53407 | 25454 ft | 417 kts | 191° |
| 2026-05-09 09:59 | 35.38211 | 59.53001 | 25682 ft | 418 kts | 191° |
| 2026-05-09 10:00 | 35.35312 | 59.52590 | 25919 ft | 420 kts | 191° |
| 2026-05-09 10:00 | 35.32409 | 59.52177 | 26155 ft | 421 kts | 191° |
| 2026-05-09 10:00 | 35.29492 | 59.51763 | 26378 ft | 423 kts | 191° |
| 2026-05-09 10:00 | 35.26559 | 59.51346 | 26578 ft | 424 kts | 191° |
| 2026-05-09 10:01 | 35.23632 | 59.50929 | 26764 ft | 425 kts | 191° |
| 2026-05-09 10:01 | 35.20692 | 59.50511 | 26943 ft | 427 kts | 191° |
| 2026-05-09 10:01 | 35.17730 | 59.50091 | 27117 ft | 428 kts | 191° |
| 2026-05-09 10:01 | 35.14761 | 59.49674 | 27328 ft | 429 kts | 191° |
| 2026-05-09 10:02 | 35.11831 | 59.49266 | 27598 ft | 428 kts | 191° |
| 2026-05-09 10:02 | 35.08870 | 59.48852 | 27877 ft | 428 kts | 192° |
| 2026-05-09 10:02 | 35.05925 | 59.48440 | 28139 ft | 427 kts | 192° |
| 2026-05-09 10:02 | 35.02976 | 59.48027 | 28414 ft | 426 kts | 192° |
| 2026-05-09 10:03 | 35.01024 | 59.47754 | 28565 ft | 426 kts | 192° |
| 2026-05-09 10:03 | 34.97130 | 59.47213 | 28892 ft | 426 kts | 192° |
| 2026-05-09 10:03 | 34.95185 | 59.46944 | 29057 ft | 426 kts | 192° |
| 2026-05-09 10:03 | 34.92246 | 59.46541 | 29323 ft | 425 kts | 192° |
| 2026-05-09 10:04 | 34.89302 | 59.46134 | 29606 ft | 425 kts | 192° |
| 2026-05-09 10:04 | 34.85416 | 59.45590 | 29982 ft | 424 kts | 192° |
| 2026-05-09 10:04 | 34.82490 | 59.45177 | 30234 ft | 423 kts | 192° |
| 2026-05-09 10:04 | 34.79570 | 59.44771 | 30482 ft | 421 kts | 193° |
| 2026-05-09 10:05 | 34.77640 | 59.44506 | 30660 ft | 420 kts | 193° |
| 2026-05-09 10:05 | 34.74742 | 59.44111 | 30935 ft | 418 kts | 193° |
| 2026-05-09 10:05 | 34.71865 | 59.43716 | 31213 ft | 416 kts | 193° |
| 2026-05-09 10:05 | 34.68988 | 59.43316 | 31489 ft | 414 kts | 193° |
| 2026-05-09 10:06 | 34.65206 | 59.42789 | 31869 ft | 412 kts | 193° |
| 2026-05-09 10:06 | 34.63282 | 59.42524 | 32053 ft | 410 kts | 194° |
| 2026-05-09 10:06 | 34.60456 | 59.42135 | 32347 ft | 408 kts | 194° |
| 2026-05-09 10:06 | 34.57676 | 59.41749 | 32618 ft | 406 kts | 194° |
| 2026-05-09 10:07 | 34.54874 | 59.41364 | 32849 ft | 405 kts | 194° |
| 2026-05-09 10:07 | 34.52078 | 59.40977 | 32955 ft | 404 kts | 194° |
| 2026-05-09 10:07 | 34.49293 | 59.40586 | 32971 ft | 403 kts | 194° |
| 2026-05-09 10:08 | 34.43732 | 59.39809 | 32976 ft | 402 kts | 194° |
| 2026-05-09 10:08 | 34.38168 | 59.39041 | 32979 ft | 402 kts | 194° |
| 2026-05-09 10:09 | 34.32639 | 59.38290 | 32989 ft | 402 kts | 194° |
| 2026-05-09 10:09 | 34.27076 | 59.37532 | 32997 ft | 403 kts | 194° |
| 2026-05-09 10:10 | 34.21495 | 59.36766 | 32994 ft | 403 kts | 194° |
| 2026-05-09 10:10 | 34.15917 | 59.35998 | 33012 ft | 403 kts | 194° |
| 2026-05-09 10:11 | 34.10339 | 59.35235 | 33009 ft | 403 kts | 194° |
| 2026-05-09 10:11 | 34.04796 | 59.34481 | 33024 ft | 404 kts | 194° |
| 2026-05-09 10:12 | 33.99203 | 59.33724 | 33038 ft | 404 kts | 194° |
| 2026-05-09 10:12 | 33.93612 | 59.32957 | 33020 ft | 404 kts | 195° |
| 2026-05-09 10:13 | 33.88021 | 59.32191 | 33031 ft | 405 kts | 194° |
| 2026-05-09 10:13 | 33.82450 | 59.31433 | 33037 ft | 405 kts | 194° |
| 2026-05-09 10:14 | 33.76868 | 59.30683 | 33050 ft | 404 kts | 194° |
| 2026-05-09 10:14 | 33.71280 | 59.29931 | 33052 ft | 405 kts | 194° |
| 2026-05-09 10:15 | 33.65655 | 59.29177 | 33053 ft | 405 kts | 194° |
| 2026-05-09 10:15 | 33.60066 | 59.28431 | 33045 ft | 404 kts | 194° |
| 2026-05-09 10:16 | 33.54471 | 59.27676 | 33054 ft | 405 kts | 194° |
| 2026-05-09 10:16 | 33.48898 | 59.26921 | 33362 ft | 405 kts | 194° |
| 2026-05-09 10:16 | 33.46109 | 59.26548 | 33597 ft | 404 kts | 194° |
| 2026-05-09 10:17 | 33.43337 | 59.26177 | 33835 ft | 404 kts | 195° |
| 2026-05-09 10:17 | 33.40540 | 59.25799 | 34044 ft | 403 kts | 195° |
| 2026-05-09 10:17 | 33.37751 | 59.25424 | 34240 ft | 403 kts | 195° |
| 2026-05-09 10:17 | 33.34975 | 59.25056 | 34431 ft | 403 kts | 194° |
| 2026-05-09 10:18 | 33.32185 | 59.24691 | 34611 ft | 403 kts | 194° |
| 2026-05-09 10:18 | 33.29386 | 59.24323 | 34808 ft | 403 kts | 195° |
| 2026-05-09 10:18 | 33.26618 | 59.23952 | 34972 ft | 403 kts | 195° |
| 2026-05-09 10:19 | 33.21061 | 59.23197 | 35014 ft | 405 kts | 195° |
| 2026-05-09 10:19 | 33.15447 | 59.22442 | 35015 ft | 406 kts | 194° |
| 2026-05-09 10:20 | 33.09846 | 59.21696 | 35015 ft | 406 kts | 194° |
| 2026-05-09 10:20 | 33.04247 | 59.20952 | 35028 ft | 407 kts | 194° |
| 2026-05-09 10:21 | 32.98584 | 59.20449 | 35032 ft | 417 kts | 185° |
| 2026-05-09 10:21 | 32.95677 | 59.20988 | 35035 ft | 431 kts | 174° |
| 2026-05-09 10:21 | 32.92946 | 59.22157 | 35034 ft | 442 kts | 167° |
| 2026-05-09 10:22 | 32.87430 | 59.24982 | 35013 ft | 444 kts | 167° |
| 2026-05-09 10:22 | 32.81754 | 59.27891 | 35019 ft | 444 kts | 167° |
| 2026-05-09 10:23 | 32.76056 | 59.30778 | 35028 ft | 445 kts | 167° |
| 2026-05-09 10:23 | 32.70348 | 59.33659 | 35007 ft | 445 kts | 167° |
| 2026-05-09 10:24 | 32.64720 | 59.36501 | 35018 ft | 446 kts | 167° |
| 2026-05-09 10:24 | 32.58921 | 59.39426 | 35032 ft | 447 kts | 167° |
| 2026-05-09 10:25 | 32.53244 | 59.42283 | 35040 ft | 447 kts | 167° |
| 2026-05-09 10:25 | 32.47575 | 59.45133 | 35053 ft | 448 kts | 167° |
| 2026-05-09 10:26 | 32.41805 | 59.48034 | 35058 ft | 448 kts | 167° |
| 2026-05-09 10:26 | 32.36032 | 59.50922 | 35058 ft | 448 kts | 167° |
| 2026-05-09 10:27 | 32.30308 | 59.53793 | 35056 ft | 448 kts | 167° |
| 2026-05-09 10:27 | 32.24592 | 59.56657 | 35020 ft | 449 kts | 167° |
| 2026-05-09 10:28 | 32.18874 | 59.59503 | 35023 ft | 450 kts | 167° |
| 2026-05-09 10:28 | 32.13065 | 59.62388 | 35023 ft | 451 kts | 167° |
| 2026-05-09 10:29 | 32.07321 | 59.65247 | 35004 ft | 451 kts | 166° |
| 2026-05-09 10:29 | 32.01543 | 59.68127 | 35015 ft | 452 kts | 166° |
| 2026-05-09 10:30 | 31.95767 | 59.70995 | 35016 ft | 452 kts | 166° |
| 2026-05-09 10:30 | 31.89960 | 59.73872 | 35023 ft | 453 kts | 166° |
| 2026-05-09 10:31 | 31.84183 | 59.76729 | 35005 ft | 453 kts | 166° |
| 2026-05-09 10:31 | 31.78398 | 59.79584 | 35000 ft | 453 kts | 166° |
| 2026-05-09 10:32 | 31.72546 | 59.82470 | 35009 ft | 453 kts | 166° |
| 2026-05-09 10:32 | 31.66719 | 59.85343 | 34985 ft | 453 kts | 166° |
| 2026-05-09 10:33 | 31.60952 | 59.88183 | 34979 ft | 453 kts | 166° |
| 2026-05-09 10:33 | 31.55132 | 59.91039 | 34974 ft | 454 kts | 166° |
| 2026-05-09 10:34 | 31.49305 | 59.93897 | 34966 ft | 455 kts | 166° |
| 2026-05-09 10:34 | 31.40509 | 59.98214 | 34959 ft | 456 kts | 166° |